Piedmont, Quebec

8:39 AM EDT on August 04, 2015 (GMT -0400)
Morin-Heights | | Change Station
CLOSE
Current Station
Personal Weather Station
Location: Morin-Heights, QUEBEC
Elevation: 1086 ft
Nearby Weather Stations

Elev 1086 ft 45.92 °N, 74.24 °W | Updated 5 minutes ago

Partly Cloudy
Partly Cloudy
61.7 °F
Feels Like 61.7 °F
N
1.6
Wind Variable Wind from North

Today is forecast to be nearly the same temperature as yesterday.

Today
High -- | Low -- °F
--% Chance of Precip.
Yesterday
High -- | Low -- °F
Precip. -- in
5:42 AM 8:21 PM
Waning Gibbous, 78% visible
Pressure 29.80 in
Visibility 25.0 miles
Clouds Few 100 ft
Few 12000 ft
Dew Point 61 °F
Humidity 98%
Rainfall 0.00 in
Snow Depth Not available.
UV 2 out of 12
Pollen Not available.
Air Quality Not available.
Flu Activity Not available.
METAR CYMX 041200Z 24003KT 210V300 25SM FEW001 FEW120 17/15 A2979 RMK CF1AC1 CF TR SLP089 DENSITY ALT 700FT

More Conditions Fewer Conditions

Pressure 29.80 in
Visibility 25.0 miles
Clouds Few 100 ft
Few 12000 ft
Dew Point 61 °F
Humidity 98%
Rainfall 0.00 in
Snow Depth Not available.
UV 2 out of 12
Pollen Not available.
Air Quality Not available.
Flu Activity Not available.
METAR CYMX 041200Z 24003KT 210V300 25SM FEW001 FEW120 17/15 A2979 RMK CF1AC1 CF TR SLP089 DENSITY ALT 700FT

More Conditions Fewer Conditions

10-Day Weather Forecast

×

Almanac

Astronomy

Aug. 04, 2015 Rise Set
Actual Time
Civil Twilight
Nautical Twilight
Astronomical Twilight
Moon
Length of Visible Light
Length of Day
Tomorrow will be .
, % of the Moon is Illuminated

Today's Extremes

Country Highs Country Lows

Community

WunderPhotos

Upload Photos

1,843,911 photos uploaded!

WunderBlogs® & News

Nearby

Air Quality

  Air Quality AQ Index Pollutant
Not available.

Snow Depth

Station Depth Elevation

Earthquake Activity

City Distance Mag. Time & Date
Minimum magnitude displayed is 2.5.

Coastal Water Temperatures

Place Temperature

Stations

Nearby Weather Stations

Station Location Temp. Windchill Dew Point Humidity Wind Precip. Elev Updated Type